sensor_id;sensor_type;location;lat;lon;timestamp;P1;durP1;ratioP1;P2;durP2;ratioP2
31390;SDS011;18022;45.492;11.548;2023-03-14T00:02:25;21.87;;;15.53;;
31390;SDS011;18022;45.492;11.548;2023-03-14T00:04:53;22.02;;;16.05;;
31390;SDS011;18022;45.492;11.548;2023-03-14T00:07:20;21.40;;;15.95;;
31390;SDS011;18022;45.492;11.548;2023-03-14T00:09:46;23.38;;;15.65;;
31390;SDS011;18022;45.492;11.548;2023-03-14T00:12:12;20.48;;;14.20;;
31390;SDS011;18022;45.492;11.548;2023-03-14T00:14:39;23.67;;;14.45;;
31390;SDS011;18022;45.492;11.548;2023-03-14T00:17:07;20.90;;;15.38;;
31390;SDS011;18022;45.492;11.548;2023-03-14T00:19:33;22.02;;;15.40;;
31390;SDS011;18022;45.492;11.548;2023-03-14T00:21:59;23.05;;;14.38;;
31390;SDS011;18022;45.492;11.548;2023-03-14T00:24:25;22.42;;;15.75;;
31390;SDS011;18022;45.492;11.548;2023-03-14T00:26:51;23.38;;;14.88;;
31390;SDS011;18022;45.492;11.548;2023-03-14T00:29:17;24.08;;;15.57;;
31390;SDS011;18022;45.492;11.548;2023-03-14T00:31:44;24.45;;;15.55;;
31390;SDS011;18022;45.492;11.548;2023-03-14T00:34:10;24.73;;;15.02;;
31390;SDS011;18022;45.492;11.548;2023-03-14T00:36:36;24.70;;;14.70;;
31390;SDS011;18022;45.492;11.548;2023-03-14T00:39:02;22.52;;;14.05;;
31390;SDS011;18022;45.492;11.548;2023-03-14T00:41:28;22.75;;;14.90;;
31390;SDS011;18022;45.492;11.548;2023-03-14T00:43:54;24.63;;;14.05;;
31390;SDS011;18022;45.492;11.548;2023-03-14T00:46:20;20.80;;;14.77;;
31390;SDS011;18022;45.492;11.548;2023-03-14T00:48:46;22.08;;;14.93;;
31390;SDS011;18022;45.492;11.548;2023-03-14T00:51:13;18.75;;;14.77;;
31390;SDS011;18022;45.492;11.548;2023-03-14T00:53:40;18.55;;;14.23;;
31390;SDS011;18022;45.492;11.548;2023-03-14T00:56:08;19.75;;;14.88;;
31390;SDS011;18022;45.492;11.548;2023-03-14T00:58:34;18.65;;;14.93;;
31390;SDS011;18022;45.492;11.548;2023-03-14T01:01:05;20.08;;;13.73;;
31390;SDS011;18022;45.492;11.548;2023-03-14T01:03:31;18.35;;;14.30;;
31390;SDS011;18022;45.492;11.548;2023-03-14T01:06:06;20.17;;;13.73;;
31390;SDS011;18022;45.492;11.548;2023-03-14T01:08:32;23.63;;;14.88;;
31390;SDS011;18022;45.492;11.548;2023-03-14T01:10:58;21.65;;;14.35;;
31390;SDS011;18022;45.492;11.548;2023-03-14T01:13:24;20.05;;;13.85;;
31390;SDS011;18022;45.492;11.548;2023-03-14T01:15:50;18.73;;;14.32;;
31390;SDS011;18022;45.492;11.548;2023-03-14T01:18:16;20.90;;;14.93;;
31390;SDS011;18022;45.492;11.548;2023-03-14T01:20:42;20.20;;;14.68;;
31390;SDS011;18022;45.492;11.548;2023-03-14T01:23:08;28.35;;;15.13;;
31390;SDS011;18022;45.492;11.548;2023-03-14T01:25:34;19.17;;;14.50;;
31390;SDS011;18022;45.492;11.548;2023-03-14T01:28:06;22.50;;;14.50;;
31390;SDS011;18022;45.492;11.548;2023-03-14T01:30:32;22.73;;;15.65;;
31390;SDS011;18022;45.492;11.548;2023-03-14T01:32:58;21.38;;;14.40;;
31390;SDS011;18022;45.492;11.548;2023-03-14T01:35:24;20.58;;;14.55;;
31390;SDS011;18022;45.492;11.548;2023-03-14T01:37:50;20.17;;;14.25;;
31390;SDS011;18022;45.492;11.548;2023-03-14T01:40:16;24.20;;;14.88;;
31390;SDS011;18022;45.492;11.548;2023-03-14T01:42:46;21.60;;;15.35;;
31390;SDS011;18022;45.492;11.548;2023-03-14T01:47:57;19.52;;;15.48;;
31390;SDS011;18022;45.492;11.548;2023-03-14T01:50:23;23.27;;;15.18;;
31390;SDS011;18022;45.492;11.548;2023-03-14T01:52:50;22.05;;;14.57;;
31390;SDS011;18022;45.492;11.548;2023-03-14T01:55:19;22.02;;;13.50;;
31390;SDS011;18022;45.492;11.548;2023-03-14T01:57:48;21.42;;;14.60;;
31390;SDS011;18022;45.492;11.548;2023-03-14T02:00:18;19.65;;;14.95;;
31390;SDS011;18022;45.492;11.548;2023-03-14T02:02:48;25.20;;;15.73;;
31390;SDS011;18022;45.492;11.548;2023-03-14T02:05:16;19.60;;;14.27;;
31390;SDS011;18022;45.492;11.548;2023-03-14T02:07:47;22.15;;;14.32;;
31390;SDS011;18022;45.492;11.548;2023-03-14T02:10:16;22.63;;;14.65;;
31390;SDS011;18022;45.492;11.548;2023-03-14T02:12:44;20.88;;;14.77;;
31390;SDS011;18022;45.492;11.548;2023-03-14T02:15:11;20.92;;;15.27;;
31390;SDS011;18022;45.492;11.548;2023-03-14T02:17:37;18.50;;;13.77;;
31390;SDS011;18022;45.492;11.548;2023-03-14T02:22:42;22.63;;;15.85;;
31390;SDS011;18022;45.492;11.548;2023-03-14T02:25:27;21.25;;;15.07;;
31390;SDS011;18022;45.492;11.548;2023-03-14T02:27:56;24.55;;;14.75;;
31390;SDS011;18022;45.492;11.548;2023-03-14T02:30:23;20.23;;;14.80;;
31390;SDS011;18022;45.492;11.548;2023-03-14T02:32:53;18.60;;;14.05;;
31390;SDS011;18022;45.492;11.548;2023-03-14T02:35:24;21.15;;;14.75;;
31390;SDS011;18022;45.492;11.548;2023-03-14T02:37:52;20.10;;;14.77;;
31390;SDS011;18022;45.492;11.548;2023-03-14T02:40:19;21.65;;;14.27;;
31390;SDS011;18022;45.492;11.548;2023-03-14T02:42:45;21.10;;;14.93;;
31390;SDS011;18022;45.492;11.548;2023-03-14T02:47:38;18.08;;;15.35;;
31390;SDS011;18022;45.492;11.548;2023-03-14T02:50:08;22.05;;;15.18;;
31390;SDS011;18022;45.492;11.548;2023-03-14T02:52:35;21.60;;;15.32;;
31390;SDS011;18022;45.492;11.548;2023-03-14T02:55:01;25.08;;;15.65;;
31390;SDS011;18022;45.492;11.548;2023-03-14T02:57:27;18.77;;;14.82;;
31390;SDS011;18022;45.492;11.548;2023-03-14T02:59:53;21.23;;;15.40;;
31390;SDS011;18022;45.492;11.548;2023-03-14T03:02:19;19.50;;;14.77;;
31390;SDS011;18022;45.492;11.548;2023-03-14T03:04:45;22.08;;;15.82;;
31390;SDS011;18022;45.492;11.548;2023-03-14T03:07:11;19.52;;;14.00;;
31390;SDS011;18022;45.492;11.548;2023-03-14T03:09:37;17.77;;;14.65;;
31390;SDS011;18022;45.492;11.548;2023-03-14T03:12:03;22.42;;;16.48;;
31390;SDS011;18022;45.492;11.548;2023-03-14T03:14:29;25.17;;;15.00;;
31390;SDS011;18022;45.492;11.548;2023-03-14T03:16:55;22.63;;;15.40;;
31390;SDS011;18022;45.492;11.548;2023-03-14T03:19:21;23.85;;;15.73;;
31390;SDS011;18022;45.492;11.548;2023-03-14T03:21:47;25.00;;;15.45;;
31390;SDS011;18022;45.492;11.548;2023-03-14T03:24:13;20.77;;;14.88;;
31390;SDS011;18022;45.492;11.548;2023-03-14T03:26:39;23.48;;;15.00;;
31390;SDS011;18022;45.492;11.548;2023-03-14T03:29:05;23.40;;;15.30;;
31390;SDS011;18022;45.492;11.548;2023-03-14T03:31:32;19.75;;;14.25;;
31390;SDS011;18022;45.492;11.548;2023-03-14T03:33:58;20.50;;;14.98;;
31390;SDS011;18022;45.492;11.548;2023-03-14T03:36:24;23.52;;;15.43;;
31390;SDS011;18022;45.492;11.548;2023-03-14T03:38:51;20.33;;;15.40;;
31390;SDS011;18022;45.492;11.548;2023-03-14T03:41:17;25.08;;;15.43;;
31390;SDS011;18022;45.492;11.548;2023-03-14T03:43:43;22.00;;;16.00;;
31390;SDS011;18022;45.492;11.548;2023-03-14T03:46:09;22.80;;;15.32;;
31390;SDS011;18022;45.492;11.548;2023-03-14T03:48:35;18.27;;;15.13;;
31390;SDS011;18022;45.492;11.548;2023-03-14T03:51:01;21.00;;;15.82;;
31390;SDS011;18022;45.492;11.548;2023-03-14T03:53:28;21.38;;;16.60;;
31390;SDS011;18022;45.492;11.548;2023-03-14T03:55:54;25.75;;;15.80;;
31390;SDS011;18022;45.492;11.548;2023-03-14T03:58:20;20.98;;;16.33;;
31390;SDS011;18022;45.492;11.548;2023-03-14T04:00:46;19.23;;;15.70;;
31390;SDS011;18022;45.492;11.548;2023-03-14T04:03:12;20.63;;;16.02;;
31390;SDS011;18022;45.492;11.548;2023-03-14T04:05:38;22.60;;;15.75;;
31390;SDS011;18022;45.492;11.548;2023-03-14T04:08:04;23.52;;;15.85;;
31390;SDS011;18022;45.492;11.548;2023-03-14T04:10:33;26.92;;;16.67;;
31390;SDS011;18022;45.492;11.548;2023-03-14T04:13:00;24.05;;;15.98;;
31390;SDS011;18022;45.492;11.548;2023-03-14T04:15:26;24.55;;;16.58;;
31390;SDS011;18022;45.492;11.548;2023-03-14T04:17:56;22.67;;;16.30;;
31390;SDS011;18022;45.492;11.548;2023-03-14T04:20:22;24.00;;;15.13;;
31390;SDS011;18022;45.492;11.548;2023-03-14T04:22:48;19.75;;;15.98;;
31390;SDS011;18022;45.492;11.548;2023-03-14T04:25:14;21.90;;;15.57;;
31390;SDS011;18022;45.492;11.548;2023-03-14T04:27:42;20.13;;;15.43;;
31390;SDS011;18022;45.492;11.548;2023-03-14T04:30:09;30.33;;;15.65;;
31390;SDS011;18022;45.492;11.548;2023-03-14T04:32:35;20.75;;;14.98;;
31390;SDS011;18022;45.492;11.548;2023-03-14T04:35:04;23.63;;;15.20;;
31390;SDS011;18022;45.492;11.548;2023-03-14T04:37:31;19.85;;;15.30;;
31390;SDS011;18022;45.492;11.548;2023-03-14T04:39:57;31.77;;;16.20;;
31390;SDS011;18022;45.492;11.548;2023-03-14T04:42:23;22.80;;;15.95;;
31390;SDS011;18022;45.492;11.548;2023-03-14T04:44:49;23.27;;;16.70;;
31390;SDS011;18022;45.492;11.548;2023-03-14T04:47:15;21.63;;;15.95;;
31390;SDS011;18022;45.492;11.548;2023-03-14T04:49:41;21.17;;;15.60;;
31390;SDS011;18022;45.492;11.548;2023-03-14T04:52:07;26.00;;;16.10;;
31390;SDS011;18022;45.492;11.548;2023-03-14T04:54:33;22.40;;;16.27;;
31390;SDS011;18022;45.492;11.548;2023-03-14T04:56:59;22.58;;;16.60;;
31390;SDS011;18022;45.492;11.548;2023-03-14T04:59:25;21.30;;;16.48;;
31390;SDS011;18022;45.492;11.548;2023-03-14T05:01:52;21.50;;;16.08;;
31390;SDS011;18022;45.492;11.548;2023-03-14T05:04:18;28.52;;;15.75;;
31390;SDS011;18022;45.492;11.548;2023-03-14T05:06:44;24.40;;;15.63;;
31390;SDS011;18022;45.492;11.548;2023-03-14T05:09:10;19.08;;;15.13;;
31390;SDS011;18022;45.492;11.548;2023-03-14T05:11:36;22.77;;;16.15;;
31390;SDS011;18022;45.492;11.548;2023-03-14T05:14:02;17.65;;;13.85;;
31390;SDS011;18022;45.492;11.548;2023-03-14T05:16:28;18.38;;;13.88;;
31390;SDS011;18022;45.492;11.548;2023-03-14T05:18:54;19.27;;;14.63;;
31390;SDS011;18022;45.492;11.548;2023-03-14T05:21:20;23.20;;;15.55;;
31390;SDS011;18022;45.492;11.548;2023-03-14T05:23:46;18.63;;;15.05;;
31390;SDS011;18022;45.492;11.548;2023-03-14T05:26:12;20.98;;;15.15;;
31390;SDS011;18022;45.492;11.548;2023-03-14T05:28:38;21.17;;;14.63;;
31390;SDS011;18022;45.492;11.548;2023-03-14T05:31:07;20.95;;;15.00;;
31390;SDS011;18022;45.492;11.548;2023-03-14T05:33:34;20.30;;;14.10;;
31390;SDS011;18022;45.492;11.548;2023-03-14T05:36:00;21.63;;;13.85;;
31390;SDS011;18022;45.492;11.548;2023-03-14T05:38:26;21.10;;;14.40;;
31390;SDS011;18022;45.492;11.548;2023-03-14T05:40:52;22.75;;;15.13;;
31390;SDS011;18022;45.492;11.548;2023-03-14T05:43:18;22.63;;;14.73;;
31390;SDS011;18022;45.492;11.548;2023-03-14T05:45:44;20.05;;;13.90;;
31390;SDS011;18022;45.492;11.548;2023-03-14T05:48:10;21.92;;;14.70;;
31390;SDS011;18022;45.492;11.548;2023-03-14T05:50:36;21.80;;;13.90;;
31390;SDS011;18022;45.492;11.548;2023-03-14T05:53:02;17.10;;;12.85;;
31390;SDS011;18022;45.492;11.548;2023-03-14T05:55:28;17.25;;;12.85;;
31390;SDS011;18022;45.492;11.548;2023-03-14T05:57:54;22.52;;;13.30;;
31390;SDS011;18022;45.492;11.548;2023-03-14T06:00:21;19.48;;;12.27;;
31390;SDS011;18022;45.492;11.548;2023-03-14T06:02:47;22.15;;;13.32;;
31390;SDS011;18022;45.492;11.548;2023-03-14T06:05:13;19.35;;;12.90;;
31390;SDS011;18022;45.492;11.548;2023-03-14T06:07:39;17.58;;;13.18;;
31390;SDS011;18022;45.492;11.548;2023-03-14T06:10:05;19.25;;;13.25;;
31390;SDS011;18022;45.492;11.548;2023-03-14T06:12:31;20.85;;;13.48;;
31390;SDS011;18022;45.492;11.548;2023-03-14T06:14:57;20.33;;;13.35;;
31390;SDS011;18022;45.492;11.548;2023-03-14T06:17:23;15.10;;;11.73;;
31390;SDS011;18022;45.492;11.548;2023-03-14T06:19:49;20.38;;;12.95;;
31390;SDS011;18022;45.492;11.548;2023-03-14T06:22:15;22.13;;;12.98;;
31390;SDS011;18022;45.492;11.548;2023-03-14T06:24:42;21.45;;;13.95;;
31390;SDS011;18022;45.492;11.548;2023-03-14T06:27:08;18.38;;;13.20;;
31390;SDS011;18022;45.492;11.548;2023-03-14T06:29:34;17.95;;;13.60;;
31390;SDS011;18022;45.492;11.548;2023-03-14T06:32:00;20.67;;;13.20;;
31390;SDS011;18022;45.492;11.548;2023-03-14T06:34:26;22.00;;;12.52;;
31390;SDS011;18022;45.492;11.548;2023-03-14T06:36:52;22.35;;;13.02;;
31390;SDS011;18022;45.492;11.548;2023-03-14T06:39:18;22.25;;;11.98;;
31390;SDS011;18022;45.492;11.548;2023-03-14T06:41:44;22.27;;;12.18;;
31390;SDS011;18022;45.492;11.548;2023-03-14T06:44:10;21.17;;;12.77;;
31390;SDS011;18022;45.492;11.548;2023-03-14T06:46:36;15.77;;;12.95;;
31390;SDS011;18022;45.492;11.548;2023-03-14T06:49:02;23.48;;;13.43;;
31390;SDS011;18022;45.492;11.548;2023-03-14T06:51:28;17.92;;;10.80;;
31390;SDS011;18022;45.492;11.548;2023-03-14T06:53:54;23.65;;;13.00;;
31390;SDS011;18022;45.492;11.548;2023-03-14T06:56:20;21.17;;;13.02;;
31390;SDS011;18022;45.492;11.548;2023-03-14T06:58:46;21.60;;;14.13;;
31390;SDS011;18022;45.492;11.548;2023-03-14T07:01:30;20.80;;;13.05;;
31390;SDS011;18022;45.492;11.548;2023-03-14T07:04:00;18.48;;;13.00;;
31390;SDS011;18022;45.492;11.548;2023-03-14T07:06:26;21.15;;;13.05;;
31390;SDS011;18022;45.492;11.548;2023-03-14T07:08:54;21.80;;;13.25;;
31390;SDS011;18022;45.492;11.548;2023-03-14T07:11:20;21.20;;;13.30;;
31390;SDS011;18022;45.492;11.548;2023-03-14T07:13:46;18.80;;;13.25;;
31390;SDS011;18022;45.492;11.548;2023-03-14T07:16:13;17.65;;;12.93;;
31390;SDS011;18022;45.492;11.548;2023-03-14T07:18:39;19.25;;;12.50;;
31390;SDS011;18022;45.492;11.548;2023-03-14T07:21:08;18.20;;;14.13;;
31390;SDS011;18022;45.492;11.548;2023-03-14T07:23:34;18.27;;;13.85;;
31390;SDS011;18022;45.492;11.548;2023-03-14T07:26:00;19.10;;;12.60;;
31390;SDS011;18022;45.492;11.548;2023-03-14T07:28:27;18.63;;;13.02;;
31390;SDS011;18022;45.492;11.548;2023-03-14T07:30:53;21.60;;;13.82;;
31390;SDS011;18022;45.492;11.548;2023-03-14T07:33:19;19.75;;;14.48;;
31390;SDS011;18022;45.492;11.548;2023-03-14T07:35:48;25.42;;;14.27;;
31390;SDS011;18022;45.492;11.548;2023-03-14T07:38:14;22.13;;;13.25;;
31390;SDS011;18022;45.492;11.548;2023-03-14T07:40:40;20.17;;;13.85;;
31390;SDS011;18022;45.492;11.548;2023-03-14T07:43:07;23.10;;;14.13;;
31390;SDS011;18022;45.492;11.548;2023-03-14T07:45:33;21.38;;;14.27;;
31390;SDS011;18022;45.492;11.548;2023-03-14T07:47:59;19.50;;;13.77;;
31390;SDS011;18022;45.492;11.548;2023-03-14T07:52:54;21.67;;;14.20;;
31390;SDS011;18022;45.492;11.548;2023-03-14T07:55:20;21.35;;;14.07;;
31390;SDS011;18022;45.492;11.548;2023-03-14T07:57:46;24.00;;;14.93;;
31390;SDS011;18022;45.492;11.548;2023-03-14T08:00:12;22.38;;;14.82;;
31390;SDS011;18022;45.492;11.548;2023-03-14T08:02:41;18.45;;;14.40;;
31390;SDS011;18022;45.492;11.548;2023-03-14T08:05:07;22.13;;;14.43;;
31390;SDS011;18022;45.492;11.548;2023-03-14T08:07:34;19.63;;;14.40;;
31390;SDS011;18022;45.492;11.548;2023-03-14T08:10:00;22.55;;;13.95;;
31390;SDS011;18022;45.492;11.548;2023-03-14T08:12:26;16.05;;;13.18;;
31390;SDS011;18022;45.492;11.548;2023-03-14T08:14:52;21.35;;;13.85;;
31390;SDS011;18022;45.492;11.548;2023-03-14T08:17:18;18.90;;;14.07;;
31390;SDS011;18022;45.492;11.548;2023-03-14T08:19:44;19.45;;;14.40;;
31390;SDS011;18022;45.492;11.548;2023-03-14T08:22:10;19.35;;;13.68;;
31390;SDS011;18022;45.492;11.548;2023-03-14T08:24:36;21.25;;;14.50;;
31390;SDS011;18022;45.492;11.548;2023-03-14T08:27:02;24.55;;;13.88;;
31390;SDS011;18022;45.492;11.548;2023-03-14T08:29:28;21.92;;;14.18;;
31390;SDS011;18022;45.492;11.548;2023-03-14T08:31:54;19.77;;;14.13;;
31390;SDS011;18022;45.492;11.548;2023-03-14T08:34:20;25.50;;;15.05;;
31390;SDS011;18022;45.492;11.548;2023-03-14T08:36:46;18.20;;;14.48;;
31390;SDS011;18022;45.492;11.548;2023-03-14T08:39:12;12.80;;;7.88;;
31390;SDS011;18022;45.492;11.548;2023-03-14T08:41:38;19.42;;;13.15;;
31390;SDS011;18022;45.492;11.548;2023-03-14T08:44:09;22.95;;;14.77;;
31390;SDS011;18022;45.492;11.548;2023-03-14T08:46:38;23.15;;;16.05;;
31390;SDS011;18022;45.492;11.548;2023-03-14T08:49:04;19.98;;;14.68;;
31390;SDS011;18022;45.492;11.548;2023-03-14T08:51:31;20.55;;;15.38;;
31390;SDS011;18022;45.492;11.548;2023-03-14T08:53:57;24.77;;;18.65;;
31390;SDS011;18022;45.492;11.548;2023-03-14T08:56:23;27.50;;;18.02;;
31390;SDS011;18022;45.492;11.548;2023-03-14T08:58:49;24.42;;;17.38;;
31390;SDS011;18022;45.492;11.548;2023-03-14T09:01:15;24.05;;;18.40;;
31390;SDS011;18022;45.492;11.548;2023-03-14T09:03:43;25.67;;;18.85;;
31390;SDS011;18022;45.492;11.548;2023-03-14T09:06:11;24.25;;;18.55;;
31390;SDS011;18022;45.492;11.548;2023-03-14T09:08:37;29.83;;;18.40;;
31390;SDS011;18022;45.492;11.548;2023-03-14T09:11:03;27.80;;;18.73;;
31390;SDS011;18022;45.492;11.548;2023-03-14T09:13:32;27.25;;;19.10;;
31390;SDS011;18022;45.492;11.548;2023-03-14T09:15:58;25.08;;;19.95;;
31390;SDS011;18022;45.492;11.548;2023-03-14T09:18:24;27.65;;;19.90;;
31390;SDS011;18022;45.492;11.548;2023-03-14T09:20:50;27.88;;;19.23;;
31390;SDS011;18022;45.492;11.548;2023-03-14T09:23:16;24.77;;;18.63;;
31390;SDS011;18022;45.492;11.548;2023-03-14T09:25:42;26.77;;;19.27;;
31390;SDS011;18022;45.492;11.548;2023-03-14T09:28:08;22.15;;;18.58;;
31390;SDS011;18022;45.492;11.548;2023-03-14T09:30:34;23.60;;;18.58;;
31390;SDS011;18022;45.492;11.548;2023-03-14T09:33:00;24.10;;;18.80;;
31390;SDS011;18022;45.492;11.548;2023-03-14T09:35:26;22.20;;;18.00;;
31390;SDS011;18022;45.492;11.548;2023-03-14T09:37:52;25.30;;;17.92;;
31390;SDS011;18022;45.492;11.548;2023-03-14T09:40:19;23.98;;;17.55;;
31390;SDS011;18022;45.492;11.548;2023-03-14T09:42:47;21.55;;;17.30;;
31390;SDS011;18022;45.492;11.548;2023-03-14T09:45:35;22.52;;;17.67;;
31390;SDS011;18022;45.492;11.548;2023-03-14T09:48:00;22.55;;;17.42;;
31390;SDS011;18022;45.492;11.548;2023-03-14T09:50:30;22.92;;;18.02;;
31390;SDS011;18022;45.492;11.548;2023-03-14T09:52:59;22.08;;;17.55;;
31390;SDS011;18022;45.492;11.548;2023-03-14T09:55:27;27.42;;;17.80;;
31390;SDS011;18022;45.492;11.548;2023-03-14T09:57:58;21.90;;;17.75;;
31390;SDS011;18022;45.492;11.548;2023-03-14T10:00:26;22.40;;;18.17;;
31390;SDS011;18022;45.492;11.548;2023-03-14T10:05:20;23.63;;;17.60;;
31390;SDS011;18022;45.492;11.548;2023-03-14T10:07:46;22.83;;;17.45;;
31390;SDS011;18022;45.492;11.548;2023-03-14T10:10:23;23.75;;;17.48;;
31390;SDS011;18022;45.492;11.548;2023-03-14T10:12:57;24.45;;;17.48;;
31390;SDS011;18022;45.492;11.548;2023-03-14T10:15:30;23.42;;;17.20;;
31390;SDS011;18022;45.492;11.548;2023-03-14T10:17:58;22.85;;;17.05;;
31390;SDS011;18022;45.492;11.548;2023-03-14T10:22:50;24.17;;;17.83;;
31390;SDS011;18022;45.492;11.548;2023-03-14T10:25:23;23.52;;;17.90;;
31390;SDS011;18022;45.492;11.548;2023-03-14T10:27:51;23.73;;;17.15;;
31390;SDS011;18022;45.492;11.548;2023-03-14T10:30:27;22.13;;;17.77;;
31390;SDS011;18022;45.492;11.548;2023-03-14T10:32:55;23.42;;;17.33;;
31390;SDS011;18022;45.492;11.548;2023-03-14T10:35:21;24.15;;;17.55;;
31390;SDS011;18022;45.492;11.548;2023-03-14T10:37:58;11.13;;;7.88;;
31390;SDS011;18022;45.492;11.548;2023-03-14T10:40:37;24.67;;;16.92;;
31390;SDS011;18022;45.492;11.548;2023-03-14T10:43:05;22.85;;;17.00;;
31390;SDS011;18022;45.492;11.548;2023-03-14T10:48:35;21.25;;;17.38;;
31390;SDS011;18022;45.492;11.548;2023-03-14T10:50:54;22.63;;;18.20;;
31390;SDS011;18022;45.492;11.548;2023-03-14T10:53:20;21.20;;;17.98;;
31390;SDS011;18022;45.492;11.548;2023-03-14T10:55:46;20.58;;;17.02;;
31390;SDS011;18022;45.492;11.548;2023-03-14T10:58:24;20.67;;;17.10;;
31390;SDS011;18022;45.492;11.548;2023-03-14T11:03:22;21.73;;;16.60;;
31390;SDS011;18022;45.492;11.548;2023-03-14T11:05:50;18.27;;;16.27;;
31390;SDS011;18022;45.492;11.548;2023-03-14T11:08:20;17.90;;;15.20;;
31390;SDS011;18022;45.492;11.548;2023-03-14T11:10:51;16.67;;;14.90;;
31390;SDS011;18022;45.492;11.548;2023-03-14T11:18:50;19.00;;;16.13;;
31390;SDS011;18022;45.492;11.548;2023-03-14T11:26:37;14.90;;;13.30;;
31390;SDS011;18022;45.492;11.548;2023-03-14T11:31:55;15.52;;;12.55;;
31390;SDS011;18022;45.492;11.548;2023-03-14T11:39:22;5.40;;;4.82;;
31390;SDS011;18022;45.492;11.548;2023-03-14T11:41:51;12.95;;;11.48;;
31390;SDS011;18022;45.492;11.548;2023-03-14T11:51:58;15.60;;;13.95;;
31390;SDS011;18022;45.492;11.548;2023-03-14T11:56:58;17.75;;;15.85;;
31390;SDS011;18022;45.492;11.548;2023-03-14T12:01:56;15.48;;;13.88;;
31390;SDS011;18022;45.492;11.548;2023-03-14T12:07:29;16.55;;;14.73;;
31390;SDS011;18022;45.492;11.548;2023-03-14T12:09:54;15.73;;;13.35;;
31390;SDS011;18022;45.492;11.548;2023-03-14T12:12:21;16.38;;;14.68;;
31390;SDS011;18022;45.492;11.548;2023-03-14T12:22:30;20.73;;;17.08;;
31390;SDS011;18022;45.492;11.548;2023-03-14T12:25:01;16.00;;;14.30;;
31390;SDS011;18022;45.492;11.548;2023-03-14T12:30:29;30.75;;;20.80;;
31390;SDS011;18022;45.492;11.548;2023-03-14T12:35:42;21.98;;;17.35;;
31390;SDS011;18022;45.492;11.548;2023-03-14T12:38:18;21.17;;;16.45;;
31390;SDS011;18022;45.492;11.548;2023-03-14T12:43:26;23.30;;;20.08;;
31390;SDS011;18022;45.492;11.548;2023-03-14T12:48:38;14.93;;;13.38;;
31390;SDS011;18022;45.492;11.548;2023-03-14T12:51:12;18.67;;;14.45;;
31390;SDS011;18022;45.492;11.548;2023-03-14T13:00:58;29.83;;;22.25;;
31390;SDS011;18022;45.492;11.548;2023-03-14T13:03:26;28.55;;;25.40;;
31390;SDS011;18022;45.492;11.548;2023-03-14T13:11:05;19.35;;;15.10;;
31390;SDS011;18022;45.492;11.548;2023-03-14T13:13:34;22.70;;;15.90;;
31390;SDS011;18022;45.492;11.548;2023-03-14T13:16:00;34.65;;;24.55;;
31390;SDS011;18022;45.492;11.548;2023-03-14T13:18:37;46.47;;;31.73;;
31390;SDS011;18022;45.492;11.548;2023-03-14T13:21:10;29.23;;;21.75;;
31390;SDS011;18022;45.492;11.548;2023-03-14T13:23:37;22.98;;;19.67;;
31390;SDS011;18022;45.492;11.548;2023-03-14T13:26:06;17.40;;;12.75;;
31390;SDS011;18022;45.492;11.548;2023-03-14T13:28:35;20.90;;;15.45;;
31390;SDS011;18022;45.492;11.548;2023-03-14T13:31:02;17.15;;;13.27;;
31390;SDS011;18022;45.492;11.548;2023-03-14T13:33:29;16.75;;;13.20;;
31390;SDS011;18022;45.492;11.548;2023-03-14T13:35:56;25.63;;;16.33;;
31390;SDS011;18022;45.492;11.548;2023-03-14T13:38:24;25.98;;;18.38;;
31390;SDS011;18022;45.492;11.548;2023-03-14T13:45:56;13.82;;;12.32;;
31390;SDS011;18022;45.492;11.548;2023-03-14T13:48:27;14.90;;;11.32;;
31390;SDS011;18022;45.492;11.548;2023-03-14T13:51:04;15.73;;;11.35;;
31390;SDS011;18022;45.492;11.548;2023-03-14T13:53:30;16.73;;;12.48;;
31390;SDS011;18022;45.492;11.548;2023-03-14T13:55:57;15.80;;;10.63;;
31390;SDS011;18022;45.492;11.548;2023-03-14T13:58:27;16.17;;;12.02;;
31390;SDS011;18022;45.492;11.548;2023-03-14T14:01:03;14.70;;;12.27;;
31390;SDS011;18022;45.492;11.548;2023-03-14T14:03:31;12.43;;;11.13;;
31390;SDS011;18022;45.492;11.548;2023-03-14T14:05:58;12.05;;;10.45;;
31390;SDS011;18022;45.492;11.548;2023-03-14T14:08:24;13.70;;;10.40;;
31390;SDS011;18022;45.492;11.548;2023-03-14T14:10:50;12.50;;;10.85;;
31390;SDS011;18022;45.492;11.548;2023-03-14T14:13:20;14.90;;;11.02;;
31390;SDS011;18022;45.492;11.548;2023-03-14T14:15:48;12.52;;;10.70;;
31390;SDS011;18022;45.492;11.548;2023-03-14T14:18:16;14.00;;;11.25;;
31390;SDS011;18022;45.492;11.548;2023-03-14T14:20:45;17.50;;;11.27;;
31390;SDS011;18022;45.492;11.548;2023-03-14T14:23:12;13.68;;;10.65;;
31390;SDS011;18022;45.492;11.548;2023-03-14T14:25:39;16.02;;;14.10;;
31390;SDS011;18022;45.492;11.548;2023-03-14T14:28:25;17.33;;;11.13;;
31390;SDS011;18022;45.492;11.548;2023-03-14T14:33:43;15.05;;;11.30;;
31390;SDS011;18022;45.492;11.548;2023-03-14T14:36:20;14.07;;;10.82;;
31390;SDS011;18022;45.492;11.548;2023-03-14T14:38:51;15.60;;;11.20;;
31390;SDS011;18022;45.492;11.548;2023-03-14T14:41:17;11.45;;;9.93;;
31390;SDS011;18022;45.492;11.548;2023-03-14T14:43:43;15.23;;;11.82;;
31390;SDS011;18022;45.492;11.548;2023-03-14T14:46:09;13.43;;;11.02;;
31390;SDS011;18022;45.492;11.548;2023-03-14T14:48:36;33.33;;;20.63;;
31390;SDS011;18022;45.492;11.548;2023-03-14T14:51:04;16.02;;;12.65;;
31390;SDS011;18022;45.492;11.548;2023-03-14T14:55:57;18.42;;;14.30;;
31390;SDS011;18022;45.492;11.548;2023-03-14T15:03:22;14.85;;;13.30;;
31390;SDS011;18022;45.492;11.548;2023-03-14T15:05:51;13.25;;;10.57;;
31390;SDS011;18022;45.492;11.548;2023-03-14T15:08:17;17.95;;;9.70;;
31390;SDS011;18022;45.492;11.548;2023-03-14T15:10:43;23.70;;;20.75;;
31390;SDS011;18022;45.492;11.548;2023-03-14T15:13:09;17.48;;;13.13;;
31390;SDS011;18022;45.492;11.548;2023-03-14T15:15:35;11.02;;;9.30;;
31390;SDS011;18022;45.492;11.548;2023-03-14T15:18:01;8.95;;;7.55;;
31390;SDS011;18022;45.492;11.548;2023-03-14T15:20:27;10.15;;;8.05;;
31390;SDS011;18022;45.492;11.548;2023-03-14T15:22:54;11.60;;;7.97;;
31390;SDS011;18022;45.492;11.548;2023-03-14T15:25:21;12.02;;;8.00;;
31390;SDS011;18022;45.492;11.548;2023-03-14T15:27:47;11.38;;;9.95;;
31390;SDS011;18022;45.492;11.548;2023-03-14T15:30:13;11.43;;;9.18;;
31390;SDS011;18022;45.492;11.548;2023-03-14T15:32:39;9.68;;;7.22;;
31390;SDS011;18022;45.492;11.548;2023-03-14T15:35:05;15.25;;;7.95;;
31390;SDS011;18022;45.492;11.548;2023-03-14T15:37:32;11.00;;;7.95;;
31390;SDS011;18022;45.492;11.548;2023-03-14T15:39:58;9.55;;;6.85;;
31390;SDS011;18022;45.492;11.548;2023-03-14T15:42:25;12.68;;;7.25;;
31390;SDS011;18022;45.492;11.548;2023-03-14T15:44:51;9.50;;;6.88;;
31390;SDS011;18022;45.492;11.548;2023-03-14T15:47:17;10.82;;;7.25;;
31390;SDS011;18022;45.492;11.548;2023-03-14T15:49:43;10.50;;;7.68;;
31390;SDS011;18022;45.492;11.548;2023-03-14T15:52:10;13.48;;;7.95;;
31390;SDS011;18022;45.492;11.548;2023-03-14T15:54:36;14.43;;;9.18;;